createdAt,value
2019-06-15T00:01:57.760Z,1005.85
2019-06-15T00:02:57.694Z,1005.87
2019-06-15T00:04:57.969Z,1005.87
2019-06-15T00:06:57.852Z,1005.88
2019-06-15T00:07:57.740Z,1005.89
2019-06-15T00:08:57.635Z,1005.89
2019-06-15T00:09:57.598Z,1005.89
2019-06-15T00:10:57.605Z,1005.90
2019-06-15T00:11:57.707Z,1005.90
2019-06-15T00:12:57.566Z,1005.86
2019-06-15T00:13:57.560Z,1005.86
2019-06-15T00:14:57.547Z,1005.81
2019-06-15T00:15:57.645Z,1005.80
2019-06-15T00:17:57.550Z,1005.80
2019-06-15T00:18:57.495Z,1005.73
2019-06-15T00:19:57.477Z,1005.74
2019-06-15T00:20:57.479Z,1005.70
2019-06-15T00:21:57.456Z,1005.63
2019-06-15T00:23:57.487Z,1005.65
2019-06-15T00:24:57.439Z,1005.61
2019-06-15T00:25:57.507Z,1005.56
2019-06-15T00:26:57.441Z,1005.59
2019-06-15T00:27:57.393Z,1005.53
2019-06-15T00:28:57.383Z,1005.52
2019-06-15T00:32:57.325Z,1005.46
2019-06-15T00:33:57.314Z,1005.44
2019-06-15T00:34:57.313Z,1005.41
2019-06-15T00:35:57.286Z,1005.38
2019-06-15T00:36:57.274Z,1005.39
2019-06-15T00:37:57.295Z,1005.35
2019-06-15T00:39:57.238Z,1005.31
2019-06-15T00:41:57.425Z,1005.26
2019-06-15T00:42:57.208Z,1005.20
2019-06-15T00:44:57.198Z,1005.17
2019-06-15T00:45:57.805Z,1005.19
2019-06-15T00:46:57.179Z,1005.14
2019-06-15T00:47:57.138Z,1005.17
2019-06-15T00:48:57.215Z,1005.14
2019-06-15T00:49:57.417Z,1005.15
2019-06-15T00:50:57.102Z,1005.15
2019-06-15T00:51:57.087Z,1005.10
2019-06-15T00:52:57.084Z,1005.08
2019-06-15T00:53:57.065Z,1005.07
2019-06-15T00:54:57.050Z,1005.04
2019-06-15T00:55:57.038Z,1005.04
2019-06-15T00:56:57.051Z,1004.97
2019-06-15T00:57:57.063Z,1005.00
2019-06-15T00:58:56.997Z,1004.94
2019-06-15T00:59:56.988Z,1004.89
2019-06-15T01:00:56.984Z,1004.88
2019-06-15T01:01:57.261Z,1004.87
2019-06-15T01:02:57.057Z,1004.90
2019-06-15T01:03:57.024Z,1004.80
2019-06-15T01:05:56.915Z,1004.78
2019-06-15T01:06:56.918Z,1004.76
2019-06-15T01:07:56.886Z,1004.73
2019-06-15T01:08:56.887Z,1004.72
2019-06-15T01:11:56.850Z,1004.66
2019-06-15T01:14:57.859Z,1004.67
2019-06-15T01:15:56.794Z,1004.60
2019-06-15T01:16:56.835Z,1004.58
2019-06-15T01:17:56.763Z,1004.56
2019-06-15T01:18:56.755Z,1004.52
2019-06-15T01:19:56.737Z,1004.47
2019-06-15T01:22:56.704Z,1004.37
2019-06-15T01:23:56.821Z,1004.34
2019-06-15T01:25:05.132Z,1004.31
2019-06-15T01:25:56.664Z,1004.32
2019-06-15T01:27:56.655Z,1004.28
2019-06-15T01:29:56.701Z,1004.33
2019-06-15T01:30:56.735Z,1004.31
2019-06-15T01:31:56.675Z,1004.33
2019-06-15T01:32:56.869Z,1004.29
2019-06-15T01:33:56.561Z,1004.28
2019-06-15T01:34:56.840Z,1004.29
2019-06-15T01:35:58.036Z,1004.23
2019-06-15T01:36:56.520Z,1004.24
2019-06-15T01:37:56.614Z,1004.19
2019-06-15T01:38:56.511Z,1004.16
2019-06-15T01:39:56.804Z,1004.15
2019-06-15T01:40:56.517Z,1004.10
2019-06-15T01:41:56.473Z,1004.01
2019-06-15T01:42:56.432Z,1004.02
2019-06-15T01:43:56.426Z,1004.00
2019-06-15T01:44:56.421Z,1003.97
2019-06-15T01:45:56.401Z,1003.94
2019-06-15T01:46:56.701Z,1003.94
2019-06-15T01:48:56.362Z,1003.83
2019-06-15T01:51:56.328Z,1003.70
2019-06-15T01:52:56.419Z,1003.64
2019-06-15T01:53:56.292Z,1003.58
2019-06-15T01:55:56.295Z,1003.54
2019-06-15T01:56:56.272Z,1003.55
2019-06-15T02:00:56.456Z,1003.58
2019-06-15T02:01:56.193Z,1003.54
2019-06-15T02:02:56.183Z,1003.52
2019-06-15T02:03:56.177Z,1003.53
2019-06-15T02:06:56.424Z,1003.48
2019-06-15T02:08:56.179Z,1003.46
2019-06-15T02:10:56.074Z,1003.42
2019-06-15T02:11:56.115Z,1003.41
2019-06-15T02:12:56.047Z,1003.37
2019-06-15T02:13:56.029Z,1003.32
2019-06-15T02:14:56.012Z,1003.26
2019-06-15T02:15:56.017Z,1003.29
2019-06-15T02:18:56.374Z,1003.29
2019-06-15T02:19:56.562Z,1003.26
2019-06-15T02:20:55.990Z,1003.16
2019-06-15T02:21:55.926Z,1003.20
2019-06-15T02:23:55.901Z,1003.14
2019-06-15T02:26:56.069Z,1003.12
2019-06-15T02:27:55.863Z,1003.10
2019-06-15T02:28:55.973Z,1003.05
2019-06-15T02:29:55.834Z,1003.08
2019-06-15T02:30:55.811Z,1003.02
2019-06-15T02:31:55.789Z,1003.01
2019-06-15T02:32:55.876Z,1003.00
2019-06-15T02:33:55.759Z,1003.02
2019-06-15T02:34:55.762Z,1003.08
2019-06-15T02:36:55.779Z,1003.20
2019-06-15T02:37:56.117Z,1003.18
2019-06-15T02:39:55.683Z,1003.18
2019-06-15T02:40:55.687Z,1003.18
2019-06-15T02:41:55.765Z,1003.16
2019-06-15T02:42:55.654Z,1003.15
2019-06-15T02:43:55.634Z,1003.11
2019-06-15T02:44:55.616Z,1003.08
2019-06-15T02:45:55.603Z,1003.01
2019-06-15T02:47:55.585Z,1002.87
2019-06-15T02:48:55.618Z,1002.86
2019-06-15T02:49:55.656Z,1002.79
2019-06-15T02:50:55.633Z,1002.77
2019-06-15T02:51:55.722Z,1002.79
2019-06-15T02:52:55.516Z,1002.78
2019-06-15T02:53:55.499Z,1002.81
2019-06-15T02:54:55.485Z,1002.79
2019-06-15T02:55:55.472Z,1002.82
2019-06-15T02:56:55.658Z,1002.86
2019-06-15T02:57:55.515Z,1002.86
2019-06-15T02:59:55.434Z,1002.84
2019-06-15T03:00:55.402Z,1002.84
2019-06-15T03:01:55.691Z,1002.80
2019-06-15T03:02:55.375Z,1002.78
2019-06-15T03:03:55.436Z,1002.75
2019-06-15T03:04:55.350Z,1002.75
2019-06-15T03:05:55.332Z,1002.76
2019-06-15T03:06:55.322Z,1002.70
2019-06-15T03:07:55.332Z,1002.76
2019-06-15T03:08:55.301Z,1002.78
2019-06-15T03:09:55.284Z,1002.81
2019-06-15T03:10:55.368Z,1002.87
2019-06-15T03:13:55.228Z,1002.87
2019-06-15T03:14:55.261Z,1002.82
2019-06-15T03:15:55.219Z,1002.83
2019-06-15T03:16:55.189Z,1002.80
2019-06-15T03:18:55.154Z,1002.61
2019-06-15T03:19:55.640Z,1002.57
2019-06-15T03:20:55.132Z,1002.56
2019-06-15T03:24:08.029Z,1002.60
2019-06-15T03:26:05.038Z,1002.57
2019-06-15T03:26:55.051Z,1002.55
2019-06-15T03:27:55.081Z,1002.47
2019-06-15T03:28:55.036Z,1002.39
2019-06-15T03:29:55.063Z,1002.22
2019-06-15T03:30:55.164Z,1002.10
2019-06-15T03:32:55.045Z,1001.89
2019-06-15T03:33:55.007Z,1001.90
2019-06-15T03:34:54.949Z,1002.04
2019-06-15T03:35:54.945Z,1002.22
2019-06-15T03:36:55.223Z,1002.41
2019-06-15T03:37:55.177Z,1002.55
2019-06-15T03:39:54.910Z,1002.68
2019-06-15T03:40:54.874Z,1002.75
2019-06-15T03:41:54.917Z,1002.75
2019-06-15T03:43:54.833Z,1002.71
2019-06-15T03:44:54.819Z,1002.65
2019-06-15T03:45:54.954Z,1002.59
2019-06-15T03:46:54.808Z,1002.56
2019-06-15T03:47:55.181Z,1002.53
2019-06-15T03:48:55.074Z,1002.52
2019-06-15T03:50:54.748Z,1002.49
2019-06-15T03:52:54.707Z,1002.66
2019-06-15T03:53:54.801Z,1002.93
2019-06-15T03:54:54.766Z,1003.15
2019-06-15T03:56:54.674Z,1003.62
2019-06-15T03:58:54.638Z,1003.88
2019-06-15T03:59:54.749Z,1003.97
2019-06-15T04:00:55.849Z,1004.12
2019-06-15T04:01:54.693Z,1004.21
2019-06-15T04:02:54.689Z,1004.36
2019-06-15T04:03:54.661Z,1004.55
2019-06-15T04:04:54.855Z,1004.70
2019-06-15T04:05:54.547Z,1004.87
2019-06-15T04:06:54.538Z,1004.99
2019-06-15T04:07:54.772Z,1004.99
2019-06-15T04:08:54.790Z,1004.85
2019-06-15T04:09:54.583Z,1004.68
2019-06-15T04:10:54.483Z,1004.53
2019-06-15T04:12:55.312Z,1004.68
2019-06-15T04:13:54.419Z,1004.89
2019-06-15T04:14:54.445Z,1005.10
2019-06-15T04:16:55.059Z,1005.05
2019-06-15T04:17:54.638Z,1004.74
2019-06-15T04:18:54.539Z,1004.55
2019-06-15T04:21:54.339Z,1003.49
2019-06-15T04:22:54.288Z,1003.37
2019-06-15T04:23:54.273Z,1003.43
2019-06-15T04:24:54.633Z,1003.36
2019-06-15T04:25:54.293Z,1003.25
2019-06-15T04:26:54.294Z,1003.06
2019-06-15T04:27:54.219Z,1002.92
2019-06-15T04:28:54.233Z,1002.92
2019-06-15T04:32:54.497Z,1002.85
2019-06-15T04:33:55.640Z,1002.87
2019-06-15T04:34:54.229Z,1002.88
2019-06-15T04:35:54.163Z,1002.77
2019-06-15T04:36:54.593Z,1002.67
2019-06-15T04:37:54.376Z,1002.53
2019-06-15T04:38:54.876Z,1002.53
2019-06-15T04:39:54.649Z,1002.44
2019-06-15T04:40:54.923Z,1002.42
2019-06-15T04:41:54.232Z,1002.44
2019-06-15T04:42:54.711Z,1002.42
2019-06-15T04:43:55.112Z,1002.49
2019-06-15T04:45:54.459Z,1002.49
2019-06-15T04:46:54.264Z,1002.50
2019-06-15T04:49:53.894Z,1002.69
2019-06-15T04:51:54.174Z,1002.82
2019-06-15T04:52:53.860Z,1002.89
2019-06-15T04:53:53.890Z,1002.86
2019-06-15T04:54:53.953Z,1002.83
2019-06-15T04:55:53.814Z,1002.81
2019-06-15T04:56:53.859Z,1002.79
2019-06-15T04:59:54.078Z,1002.77
2019-06-15T05:00:53.760Z,1002.83
2019-06-15T05:02:53.705Z,1002.72
2019-06-15T05:05:53.709Z,1002.51
2019-06-15T05:06:54.229Z,1002.52
2019-06-15T05:07:53.743Z,1002.51
2019-06-15T05:08:53.616Z,1002.48
2019-06-15T05:09:53.999Z,1002.49
2019-06-15T05:10:59.629Z,1002.41
2019-06-15T05:11:53.669Z,1002.41
2019-06-15T05:12:53.585Z,1002.40
2019-06-15T05:13:53.539Z,1002.42
2019-06-15T05:14:53.672Z,1002.39
2019-06-15T05:15:53.504Z,1002.41
2019-06-15T05:16:53.622Z,1002.40
2019-06-15T05:18:53.994Z,1002.39
2019-06-15T05:20:53.439Z,1002.43
2019-06-15T05:22:54.223Z,1002.42
2019-06-15T05:23:53.705Z,1002.40
2019-06-15T05:24:53.704Z,1002.45
2019-06-15T05:25:53.405Z,1002.49
2019-06-15T05:27:05.832Z,1002.56
2019-06-15T05:27:53.333Z,1002.54
2019-06-15T05:28:53.455Z,1002.58
2019-06-15T05:30:53.576Z,1002.65
2019-06-15T05:31:53.275Z,1002.66
2019-06-15T05:32:53.271Z,1002.65
2019-06-15T05:33:53.249Z,1002.68
2019-06-15T05:36:53.456Z,1002.81
2019-06-15T05:38:53.777Z,1002.79
2019-06-15T05:42:54.589Z,1002.72
2019-06-15T05:43:53.475Z,1002.70
2019-06-15T05:44:53.337Z,1002.70
2019-06-15T05:45:53.271Z,1002.66
2019-06-15T05:48:53.244Z,1002.41
2019-06-15T05:49:53.094Z,1002.35
2019-06-15T05:50:53.834Z,1002.30
2019-06-15T05:51:53.117Z,1002.26
2019-06-15T05:52:53.255Z,1002.26
2019-06-15T05:53:52.971Z,1002.26
2019-06-15T05:55:52.985Z,1002.16
2019-06-15T05:56:53.765Z,1002.13
2019-06-15T05:59:54.648Z,1002.18
2019-06-15T06:00:52.887Z,1002.06
2019-06-15T06:02:53.728Z,1002.00
2019-06-15T06:04:53.665Z,1002.06
2019-06-15T06:05:53.036Z,1002.07
2019-06-15T06:07:52.777Z,1001.93
2019-06-15T06:09:53.244Z,1002.03
2019-06-15T06:10:52.732Z,1002.03
2019-06-15T06:11:53.445Z,1001.99
2019-06-15T06:12:52.885Z,1001.96
2019-06-15T06:13:52.826Z,1001.93
2019-06-15T06:14:52.822Z,1001.90
2019-06-15T06:15:52.994Z,1001.89
2019-06-15T06:16:52.648Z,1001.84
2019-06-15T06:17:52.641Z,1001.87
2019-06-15T06:18:52.658Z,1001.86
2019-06-15T06:19:52.593Z,1001.84
2019-06-15T06:20:53.177Z,1001.82
2019-06-15T06:21:52.661Z,1001.84
2019-06-15T06:23:54.077Z,1001.89
2019-06-15T06:24:52.564Z,1001.87
2019-06-15T06:25:53.545Z,1001.85
2019-06-15T06:26:52.575Z,1001.89
2019-06-15T06:27:52.568Z,1001.86
2019-06-15T06:28:57.318Z,1001.91
2019-06-15T06:29:52.828Z,1001.88
2019-06-15T06:30:52.545Z,1001.87
2019-06-15T06:31:53.364Z,1001.89
2019-06-15T06:33:52.430Z,1001.67
2019-06-15T06:34:52.450Z,1001.50
2019-06-15T06:35:52.374Z,1001.39
2019-06-15T06:36:52.374Z,1001.30
2019-06-15T06:37:52.377Z,1001.31
2019-06-15T06:38:52.823Z,1001.32
2019-06-15T06:40:52.715Z,1001.46
2019-06-15T06:41:52.325Z,1001.55
2019-06-15T06:42:52.290Z,1001.49
2019-06-15T06:44:52.369Z,1001.29
2019-06-15T06:45:52.257Z,1001.29
2019-06-15T06:46:52.223Z,1001.29
2019-06-15T06:47:52.229Z,1001.49
2019-06-15T06:48:54.102Z,1001.68
2019-06-15T06:49:52.365Z,1001.84
2019-06-15T06:50:52.250Z,1001.93
2019-06-15T06:52:52.142Z,1001.76
2019-06-15T06:54:52.262Z,1001.73
2019-06-15T06:55:52.881Z,1001.78
2019-06-15T06:56:52.209Z,1001.92
2019-06-15T06:58:52.359Z,1002.05
2019-06-15T06:59:52.095Z,1002.04
2019-06-15T07:00:52.814Z,1001.98
2019-06-15T07:02:52.023Z,1001.77
2019-06-15T07:04:51.982Z,1001.70
2019-06-15T07:05:52.353Z,1001.66
2019-06-15T07:08:52.344Z,1001.87
2019-06-15T07:09:52.721Z,1001.89
2019-06-15T07:10:52.909Z,1001.84
2019-06-15T07:15:52.721Z,1001.90
2019-06-15T07:20:51.823Z,1002.08
2019-06-15T07:22:51.928Z,1001.96
2019-06-15T07:25:51.824Z,1002.02
2019-06-15T07:26:51.697Z,1001.93
2019-06-15T07:28:52.059Z,1001.86
2019-06-15T07:29:51.796Z,1001.86
2019-06-15T07:30:51.724Z,1001.84
2019-06-15T07:31:51.689Z,1001.81
2019-06-15T07:32:51.607Z,1001.81
2019-06-15T07:33:51.646Z,1001.76
2019-06-15T07:34:51.587Z,1001.67
2019-06-15T07:35:52.607Z,1001.64
2019-06-15T07:36:51.671Z,1001.50
2019-06-15T07:37:51.602Z,1001.50
2019-06-15T07:38:53.031Z,1001.47
2019-06-15T07:39:52.034Z,1001.48
2019-06-15T07:40:51.584Z,1001.48
2019-06-15T07:42:51.645Z,1001.57
2019-06-15T07:43:52.059Z,1001.62
2019-06-15T07:44:51.467Z,1001.62
2019-06-15T07:45:55.433Z,1001.55
2019-06-15T07:48:52.080Z,1001.64
2019-06-15T07:49:51.448Z,1001.69
2019-06-15T07:50:51.393Z,1001.75
2019-06-15T07:51:51.407Z,1001.74
2019-06-15T07:52:52.561Z,1001.66
2019-06-15T07:53:57.960Z,1001.58
2019-06-15T07:54:51.347Z,1001.50
2019-06-15T07:56:51.441Z,1001.39
2019-06-15T07:58:51.367Z,1001.32
2019-06-15T07:59:51.291Z,1001.29
2019-06-15T08:00:51.597Z,1001.33
2019-06-15T08:01:51.271Z,1001.25
2019-06-15T08:02:51.262Z,1001.07
2019-06-15T08:03:51.765Z,1000.87
2019-06-15T08:05:51.389Z,1000.45
2019-06-15T08:06:51.338Z,1000.31
2019-06-15T08:07:51.586Z,1000.33
2019-06-15T08:10:51.264Z,1000.47
2019-06-15T08:11:51.154Z,1000.53
2019-06-15T08:12:51.156Z,1000.58
2019-06-15T08:13:51.442Z,1000.67
2019-06-15T08:16:51.226Z,1000.78
2019-06-15T08:17:51.610Z,1000.76
2019-06-15T08:18:51.215Z,1000.80
2019-06-15T08:19:51.065Z,1000.83
2019-06-15T08:20:51.057Z,1000.87
2019-06-15T08:22:52.419Z,1000.83
2019-06-15T08:23:51.714Z,1000.84
2019-06-15T08:25:51.137Z,1000.96
2019-06-15T08:26:50.972Z,1000.96
2019-06-15T08:27:51.018Z,1001.01
2019-06-15T08:28:52.784Z,1001.01
2019-06-15T08:30:51.023Z,1001.01
2019-06-15T08:31:51.011Z,1001.02
2019-06-15T08:32:50.905Z,1000.98
2019-06-15T08:33:51.073Z,1000.96
2019-06-15T08:36:50.876Z,1000.92
2019-06-15T08:38:50.963Z,1000.97
2019-06-15T08:39:50.879Z,1000.98
2019-06-15T08:40:50.835Z,1000.99
2019-06-15T08:41:51.527Z,1000.97
2019-06-15T08:42:52.153Z,1001.00
2019-06-15T08:43:51.106Z,1000.97
2019-06-15T08:44:51.116Z,1001.00
2019-06-15T08:45:50.912Z,1000.98
2019-06-15T08:46:51.483Z,1001.02
2019-06-15T08:47:51.398Z,1001.10
2019-06-15T08:48:50.817Z,1001.10
2019-06-15T08:49:50.801Z,1001.12
2019-06-15T08:50:51.026Z,1001.18
2019-06-15T08:51:51.422Z,1001.21
2019-06-15T08:53:50.951Z,1001.29
2019-06-15T08:55:50.980Z,1001.39
2019-06-15T08:56:51.112Z,1001.34
2019-06-15T08:57:50.700Z,1001.42
2019-06-15T08:58:55.636Z,1001.46
2019-06-15T08:59:52.276Z,1001.47
2019-06-15T09:00:51.246Z,1001.53
2019-06-15T09:01:50.643Z,1001.56
2019-06-15T09:05:50.579Z,1001.53
2019-06-15T09:07:50.875Z,1001.51
2019-06-15T09:08:51.985Z,1001.67
2019-06-15T09:10:51.323Z,1001.63
2019-06-15T09:11:51.010Z,1001.62
2019-06-15T09:12:50.735Z,1001.80
2019-06-15T09:13:50.566Z,1001.80
2019-06-15T09:15:51.440Z,1001.84
2019-06-15T09:17:50.813Z,1001.96
2019-06-15T09:19:50.595Z,1002.09
2019-06-15T09:20:50.757Z,1002.10
2019-06-15T09:21:50.525Z,1001.93
2019-06-15T09:22:50.804Z,1002.03
2019-06-15T09:29:50.531Z,1001.98
2019-06-15T09:33:50.451Z,1002.04
2019-06-15T09:36:50.349Z,1002.09
2019-06-15T09:37:50.353Z,1002.24
2019-06-15T09:38:50.363Z,1002.33
2019-06-15T09:39:50.433Z,1002.16
2019-06-15T09:40:50.517Z,1002.17
2019-06-15T09:41:50.327Z,1002.08
2019-06-15T09:42:50.624Z,1001.91
2019-06-15T09:43:50.303Z,1002.39
2019-06-15T09:44:50.353Z,1002.37
2019-06-15T09:45:50.293Z,1001.97
2019-06-15T09:47:50.281Z,1002.28
2019-06-15T09:48:50.546Z,1002.08
2019-06-15T09:50:50.654Z,1001.91
2019-06-15T09:51:50.247Z,1001.94
2019-06-15T09:52:50.263Z,1001.87
2019-06-15T09:53:50.910Z,1001.78
2019-06-15T09:54:50.236Z,1001.86
2019-06-15T09:55:50.281Z,1001.78
2019-06-15T09:56:50.519Z,1001.73
2019-06-15T09:57:50.224Z,1001.67
2019-06-15T09:59:50.277Z,1001.80
2019-06-15T10:00:50.216Z,1001.83
2019-06-15T10:01:50.208Z,1002.01
2019-06-15T10:02:50.553Z,1001.81
2019-06-15T10:03:50.287Z,1001.77
2019-06-15T10:04:50.206Z,1001.76
2019-06-15T10:08:50.655Z,1001.83
2019-06-15T10:10:50.549Z,1002.50
2019-06-15T10:12:50.361Z,1001.82
2019-06-15T10:13:50.373Z,1001.83
2019-06-15T10:14:50.418Z,1001.92
2019-06-15T10:15:50.143Z,1002.40
2019-06-15T10:17:50.103Z,1002.20
2019-06-15T10:18:50.854Z,1001.98
2019-06-15T10:19:50.111Z,1003.15
2019-06-15T10:20:50.153Z,1002.40
2019-06-15T10:21:50.404Z,1002.70
2019-06-15T10:22:50.163Z,1001.96
2019-06-15T10:23:52.956Z,1002.74
2019-06-15T10:24:50.266Z,1002.47
2019-06-15T10:26:50.352Z,1001.93
2019-06-15T10:28:50.276Z,1001.86
2019-06-15T10:29:50.119Z,1001.79
2019-06-15T10:30:50.485Z,1001.81
2019-06-15T10:33:50.643Z,1001.95
2019-06-15T10:34:50.706Z,1002.09
2019-06-15T10:36:50.469Z,1002.14
2019-06-15T10:37:50.195Z,1002.07
2019-06-15T10:38:50.488Z,1002.08
2019-06-15T10:40:51.263Z,1002.16
2019-06-15T10:41:50.532Z,1002.20
2019-06-15T10:42:50.641Z,1002.28
2019-06-15T10:43:50.668Z,1002.38
2019-06-15T10:44:50.025Z,1002.20
2019-06-15T10:45:50.586Z,1002.17
2019-06-15T10:46:50.305Z,1002.42
2019-06-15T10:47:50.305Z,1002.47
2019-06-15T10:48:50.089Z,1002.32
2019-06-15T10:50:50.373Z,1002.29
2019-06-15T10:54:50.587Z,1002.36
2019-06-15T10:56:09.948Z,1002.22
2019-06-15T10:59:57.482Z,1002.32
2019-06-15T11:00:50.054Z,1002.69
2019-06-15T11:01:50.149Z,1002.50
2019-06-15T11:02:50.115Z,1002.53
2019-06-15T11:03:49.906Z,1002.68
2019-06-15T11:04:50.249Z,1002.57
2019-06-15T11:05:49.887Z,1002.34
2019-06-15T11:06:50.397Z,1002.39
2019-06-15T11:07:49.877Z,1002.30
2019-06-15T11:10:50.212Z,1002.24
2019-06-15T11:11:49.844Z,1002.24
2019-06-15T11:12:50.164Z,1002.22
2019-06-15T11:13:49.984Z,1002.24
2019-06-15T11:14:55.954Z,1002.31
2019-06-15T11:15:50.426Z,1002.35
2019-06-15T11:16:49.761Z,1002.44
2019-06-15T11:17:50.413Z,1002.46
2019-06-15T11:18:50.216Z,1002.51
2019-06-15T11:19:50.310Z,1002.54
2019-06-15T11:22:50.685Z,1002.55
2019-06-15T11:23:49.931Z,1002.61
2019-06-15T11:24:49.800Z,1002.65
2019-06-15T11:25:50.658Z,1002.70
2019-06-15T11:26:51.289Z,1002.66
2019-06-15T11:27:51.661Z,1002.69
2019-06-15T11:29:50.392Z,1002.73
2019-06-15T11:30:49.833Z,1002.73
2019-06-15T11:31:50.093Z,1002.73
2019-06-15T11:32:49.947Z,1002.73
2019-06-15T11:33:49.620Z,1002.66
2019-06-15T11:34:50.260Z,1002.74
2019-06-15T11:35:50.417Z,1002.77
2019-06-15T11:36:56.042Z,1003.06
2019-06-15T11:38:50.142Z,1002.92
2019-06-15T11:41:50.169Z,1003.07
2019-06-15T11:42:50.224Z,1003.01
2019-06-15T11:43:50.056Z,1003.07
2019-06-15T11:45:49.866Z,1003.13
2019-06-15T11:46:49.732Z,1003.39
2019-06-15T11:47:49.577Z,1003.15
2019-06-15T11:48:56.294Z,1003.22
2019-06-15T11:49:49.661Z,1003.24
2019-06-15T11:51:50.170Z,1003.29
2019-06-15T11:52:49.729Z,1003.39
2019-06-15T11:53:49.859Z,1003.37
2019-06-15T11:54:49.851Z,1003.33
2019-06-15T11:56:49.465Z,1003.36
2019-06-15T11:58:49.383Z,1003.34
2019-06-15T11:59:49.431Z,1003.50
2019-06-15T12:00:49.546Z,1003.68
2019-06-15T12:01:49.353Z,1003.69
2019-06-15T12:02:49.444Z,1004.08
2019-06-15T12:03:49.470Z,1003.80
2019-06-15T12:04:57.982Z,1004.20
2019-06-15T12:06:50.010Z,1003.58
2019-06-15T12:08:49.974Z,1004.03
2019-06-15T12:09:49.279Z,1004.02
2019-06-15T12:10:49.326Z,1003.81
2019-06-15T12:11:49.592Z,1003.68
2019-06-15T12:12:49.427Z,1003.85
2019-06-15T12:13:49.548Z,1003.90
2019-06-15T12:15:49.270Z,1003.70
2019-06-15T12:16:49.241Z,1003.64
2019-06-15T12:17:49.343Z,1003.71
2019-06-15T12:18:49.561Z,1003.78
2019-06-15T12:19:49.264Z,1003.87
2019-06-15T12:20:50.293Z,1003.90
2019-06-15T12:21:50.467Z,1004.45
2019-06-15T12:22:49.380Z,1003.96
2019-06-15T12:23:49.266Z,1004.16
2019-06-15T12:25:50.146Z,1004.56
2019-06-15T12:26:49.183Z,1004.56
2019-06-15T12:27:49.145Z,1004.40
2019-06-15T12:30:49.214Z,1004.87
2019-06-15T12:32:49.709Z,1004.34
2019-06-15T12:34:49.893Z,1004.73
2019-06-15T12:35:49.082Z,1004.28
2019-06-15T12:37:49.081Z,1004.29
2019-06-15T12:39:49.343Z,1004.27
2019-06-15T12:40:49.035Z,1004.36
2019-06-15T12:42:49.050Z,1004.76
2019-06-15T12:43:49.039Z,1004.70
2019-06-15T12:44:49.017Z,1004.32
2019-06-15T12:45:49.039Z,1004.24
2019-06-15T12:46:51.094Z,1004.90
2019-06-15T12:48:48.977Z,1004.34
2019-06-15T12:49:48.986Z,1004.41
2019-06-15T12:51:49.052Z,1005.01
2019-06-15T12:52:49.254Z,1005.01
2019-06-15T12:55:49.038Z,1004.39
2019-06-15T12:57:52.132Z,1004.53
2019-06-15T12:58:48.929Z,1004.61
2019-06-15T12:59:49.288Z,1004.62
2019-06-15T13:01:01.715Z,1004.57
2019-06-15T13:01:49.370Z,1004.63
2019-06-15T13:02:48.887Z,1004.99
2019-06-15T13:04:48.884Z,1004.81
2019-06-15T13:05:48.846Z,1004.82
2019-06-15T13:06:49.815Z,1004.85
2019-06-15T13:07:48.833Z,1004.83
2019-06-15T13:09:48.803Z,1004.72
2019-06-15T13:10:48.810Z,1004.83
2019-06-15T13:11:48.813Z,1004.82
2019-06-15T13:12:49.097Z,1004.61
2019-06-15T13:13:48.902Z,1004.70
2019-06-15T13:14:48.878Z,1004.60
2019-06-15T13:15:49.055Z,1004.67
2019-06-15T13:16:48.828Z,1004.80
2019-06-15T13:17:49.227Z,1004.66
2019-06-15T13:18:49.074Z,1004.77
2019-06-15T13:19:48.873Z,1004.81
2019-06-15T13:21:48.812Z,1004.85
2019-06-15T13:22:48.840Z,1004.83
2019-06-15T13:23:49.005Z,1004.84
2019-06-15T13:24:49.267Z,1004.90
2019-06-15T13:25:48.841Z,1004.96
2019-06-15T13:26:49.418Z,1005.09
2019-06-15T13:27:48.667Z,1005.14
2019-06-15T13:30:02.971Z,1005.09
2019-06-15T13:31:49.301Z,1005.02
2019-06-15T13:32:48.619Z,1005.04
2019-06-15T13:33:48.628Z,1005.01
2019-06-15T13:34:48.635Z,1005.01
2019-06-15T13:35:48.560Z,1004.99
2019-06-15T13:36:48.604Z,1004.97
2019-06-15T13:37:48.534Z,1005.09
2019-06-15T13:38:48.634Z,1005.01
2019-06-15T13:39:48.632Z,1005.02
2019-06-15T13:40:48.512Z,1005.14
2019-06-15T13:41:48.571Z,1005.11
2019-06-15T13:42:48.845Z,1005.44
2019-06-15T13:43:49.723Z,1005.66
2019-06-15T13:45:48.680Z,1005.11
2019-06-15T13:46:48.449Z,1005.08
2019-06-15T13:47:48.498Z,1005.11
2019-06-15T13:48:48.785Z,1005.13
2019-06-15T13:50:48.418Z,1005.31
2019-06-15T13:51:48.734Z,1005.36
2019-06-15T13:54:51.625Z,1005.28
2019-06-15T13:58:48.354Z,1005.43
2019-06-15T13:59:48.377Z,1005.76
2019-06-15T14:00:48.330Z,1005.31
2019-06-15T14:01:48.385Z,1005.84
2019-06-15T14:03:48.588Z,1005.66
2019-06-15T14:04:48.475Z,1005.36
2019-06-15T14:06:48.333Z,1005.46
2019-06-15T14:08:48.315Z,1005.43
2019-06-15T14:09:48.277Z,1005.53
2019-06-15T14:10:48.530Z,1005.44
2019-06-15T14:11:49.405Z,1005.52
2019-06-15T14:13:48.222Z,1005.38
2019-06-15T14:14:48.218Z,1005.86
2019-06-15T14:15:48.824Z,1005.52
2019-06-15T14:16:54.769Z,1005.13
2019-06-15T14:17:48.325Z,1005.18
2019-06-15T14:18:48.215Z,1005.20
2019-06-15T14:20:48.405Z,1005.50
2019-06-15T14:21:48.542Z,1005.53
2019-06-15T14:22:48.190Z,1005.42
2019-06-15T14:24:48.173Z,1005.29
2019-06-15T14:25:48.146Z,1005.58
2019-06-15T14:26:48.143Z,1005.23
2019-06-15T14:27:48.304Z,1005.15
2019-06-15T14:31:50.756Z,1005.17
2019-06-15T14:34:49.032Z,1005.26
2019-06-15T14:35:48.029Z,1005.28
2019-06-15T14:36:48.008Z,1005.29
2019-06-15T14:39:49.380Z,1005.34
2019-06-15T14:40:48.045Z,1005.36
2019-06-15T14:41:50.960Z,1005.23
2019-06-15T14:42:48.502Z,1005.29
2019-06-15T14:43:47.984Z,1005.45
2019-06-15T14:44:48.058Z,1005.52
2019-06-15T14:45:59.059Z,1005.47
2019-06-15T14:47:49.308Z,1005.45
2019-06-15T14:48:47.922Z,1005.48
2019-06-15T14:49:47.958Z,1005.50
2019-06-15T14:50:48.102Z,1005.53
2019-06-15T14:51:51.002Z,1005.62
2019-06-15T14:53:55.158Z,1005.51
2019-06-15T14:54:47.922Z,1005.54
2019-06-15T14:55:48.016Z,1005.53
2019-06-15T14:56:47.834Z,1005.34
2019-06-15T14:57:47.889Z,1005.50
2019-06-15T14:58:47.895Z,1005.52
2019-06-15T14:59:59.745Z,1005.49
2019-06-15T15:00:47.829Z,1005.54
2019-06-15T15:02:48.529Z,1005.35
2019-06-15T15:03:48.748Z,1005.64
2019-06-15T15:04:47.865Z,1005.53
2019-06-15T15:05:47.808Z,1005.25
2019-06-15T15:06:47.820Z,1005.51
2019-06-15T15:07:48.160Z,1005.65
2019-06-15T15:08:48.031Z,1005.53
2019-06-15T15:09:49.990Z,1005.57
2019-06-15T15:10:48.258Z,1005.32
2019-06-15T15:11:47.916Z,1005.59
2019-06-15T15:12:47.744Z,1005.50
2019-06-15T15:13:48.699Z,1005.57
2019-06-15T15:14:47.736Z,1005.52
2019-06-15T15:15:48.029Z,1005.63
2019-06-15T15:17:47.874Z,1005.32
2019-06-15T15:19:48.177Z,1005.55
2019-06-15T15:20:47.711Z,1005.39
2019-06-15T15:22:47.749Z,1005.32
2019-06-15T15:24:47.611Z,1005.35
2019-06-15T15:26:47.877Z,1005.52
2019-06-15T15:27:47.569Z,1005.45
2019-06-15T15:28:47.730Z,1005.48
2019-06-15T15:29:47.599Z,1005.32
2019-06-15T15:30:48.979Z,1005.54
2019-06-15T15:31:47.594Z,1005.20
2019-06-15T15:32:47.603Z,1005.23
2019-06-15T15:33:47.968Z,1005.40
2019-06-15T15:34:47.905Z,1005.49
2019-06-15T15:35:49.377Z,1005.50
2019-06-15T15:38:47.516Z,1005.33
2019-06-15T15:39:47.628Z,1005.34
2019-06-15T15:40:47.772Z,1005.39
2019-06-15T15:41:47.448Z,1005.30
2019-06-15T15:42:47.453Z,1005.40
2019-06-15T15:43:47.481Z,1005.41
2019-06-15T15:44:47.517Z,1005.45
2019-06-15T15:45:47.616Z,1005.44
2019-06-15T15:46:47.435Z,1005.48
2019-06-15T15:47:47.427Z,1005.61
2019-06-15T15:48:47.458Z,1005.56
2019-06-15T15:49:47.654Z,1005.35
2019-06-15T15:51:47.463Z,1005.35
2019-06-15T15:52:47.780Z,1005.36
2019-06-15T15:54:47.329Z,1005.51
2019-06-15T15:55:47.374Z,1005.59
2019-06-15T15:56:47.366Z,1005.65
2019-06-15T15:57:47.804Z,1005.47
2019-06-15T15:58:47.435Z,1005.47
2019-06-15T15:59:47.283Z,1005.53
2019-06-15T16:00:47.327Z,1005.56